Terminal Aerodrome Forecast
Issued by NWS

Home | Current Version | Previous Version | Text Only | Print | Product List | Glossary On
Versions: 1 2 3 4 5 6 7 8 9 10 11 12 13 14
399
FTUS42 KTAE 141737
TAFDHN
TAF
KDHN 141737Z 1418/1518 12008KT P6SM SCT250
     FM150000 10004KT P6SM BKN250
     FM151000 10006KT P6SM BKN005 OVC015
     FM151500 18015G20KT P6SM BKN015=

USA.gov is the U.S. government's official web portal to all federal, state and local government web resources and services.